Time;durP1;ratioP1;P1;durP2;ratioP2;P2;SDS_P1;SDS_P2;PMS_P1;PMS_P2;Temp;Humidity;BMP_temperature;BMP_pressure;BME280_temperature;BME280_humidity;BME280_pressure;Samples;Min_cycle;Max_cycle;Signal;HPM_P1;HPM_P2
2022/02/07 00:08:28;;;;;;;6.60;1.35;;;4.30;99.90;;;;;;6742629;88;20719;-73
2022/02/07 00:18:29;;;;;;;7.95;1.12;;;4.20;99.90;;;;;;6746575;88;20211;-73
2022/02/07 00:28:30;;;;;;;9.18;1.10;;;4.20;99.90;;;;;;6743598;87;20601;-73
2022/02/07 00:38:31;;;;;;;5.53;1.12;;;4.30;99.90;;;;;;6744361;88;20206;-72
2022/02/07 00:48:31;;;;;;;7.25;0.93;;;4.40;99.90;;;;;;6745826;88;20178;-72
2022/02/07 00:58:32;;;;;;;6.60;1.55;;;3.30;99.90;;;;;;6749887;87;20183;-72
2022/02/07 01:08:44;;;;;;;8.02;1.30;;;3.00;99.90;;;;;;6761034;87;20192;-72
2022/02/07 01:59:57;;;;;;;7.45;0.90;;;3.10;99.90;;;;;;6754897;87;20773;-72
2022/02/07 02:09:58;;;;;;;5.75;0.80;;;3.00;99.90;;;;;;6761150;87;20254;-73
2022/02/07 02:51:06;;;;;;;13.50;1.55;;;3.20;99.90;;;;;;6756955;87;20227;-73
2022/02/07 03:01:07;;;;;;;8.32;1.70;;;3.30;99.90;;;;;;6770651;87;20196;-73
2022/02/07 03:11:13;;;;;;;13.15;1.52;;;3.30;99.90;;;;;;6763686;87;20776;-72
2022/02/07 03:21:13;;;;;;;10.47;1.33;;;3.30;99.90;;;;;;6760816;87;20647;-71
2022/02/07 03:31:15;;;;;;;8.63;1.30;;;3.20;99.90;;;;;;6753799;87;20180;-72
2022/02/07 03:41:16;;;;;;;9.55;1.10;;;3.00;99.90;;;;;;6750593;87;20290;-72
2022/02/07 03:51:16;;;;;;;5.15;0.50;;;3.00;99.90;;;;;;6756785;87;20226;-73
2022/02/07 04:01:20;;;;;;;7.72;0.88;;;2.80;99.90;;;;;;6752667;87;20253;-72
2022/02/07 04:21:21;;;;;;;7.32;0.88;;;2.70;99.90;;;;;;6755891;87;20256;-71
2022/02/07 04:31:22;;;;;;;7.30;1.10;;;2.60;99.90;;;;;;6754821;87;20185;-72
2022/02/07 04:41:24;;;;;;;6.25;0.98;;;2.70;99.90;;;;;;6766536;87;20184;-72
2022/02/07 05:01:50;;;;;;;7.35;1.12;;;2.70;99.90;;;;;;6757337;87;20191;-72
2022/02/07 05:22:09;;;;;;;11.00;1.35;;;2.60;99.90;;;;;;6754570;87;21204;-72
2022/02/07 05:32:10;;;;;;;9.90;1.50;;;2.70;99.90;;;;;;6766484;87;20397;-72
2022/02/07 05:42:11;;;;;;;10.70;1.70;;;2.80;99.90;;;;;;6758776;87;20215;-71
2022/02/07 05:52:11;;;;;;;9.18;1.35;;;3.00;99.90;;;;;;6760083;87;20217;-72
2022/02/07 06:02:12;;;;;;;11.70;1.60;;;3.10;99.90;;;;;;6766111;87;20204;-72
2022/02/07 06:12:12;;;;;;;7.18;1.20;;;3.20;99.90;;;;;;6760832;87;20214;-72
2022/02/07 06:22:13;;;;;;;11.10;1.37;;;3.40;99.90;;;;;;6755213;87;20191;-72
2022/02/07 06:32:13;;;;;;;16.17;1.62;;;3.50;99.90;;;;;;6758138;87;20940;-72
2022/02/07 06:42:15;;;;;;;9.38;1.48;;;3.60;99.90;;;;;;6759187;87;20189;-72
2022/02/07 06:52:16;;;;;;;11.50;1.20;;;3.80;99.90;;;;;;6756257;87;20936;-72
2022/02/07 07:02:19;;;;;;;11.37;1.47;;;3.80;99.90;;;;;;6754891;87;20258;-72
2022/02/07 07:12:20;;;;;;;6.70;1.23;;;4.00;99.90;;;;;;6740981;88;20516;-72
2022/02/07 07:22:20;;;;;;;10.43;1.60;;;4.00;99.90;;;;;;6737041;87;20216;-73
2022/02/07 07:32:24;;;;;;;12.52;1.52;;;4.10;99.90;;;;;;6743589;88;20176;-74
2022/02/07 07:42:25;;;;;;;11.25;1.73;;;4.20;99.90;;;;;;6743136;88;20180;-74
2022/02/07 07:52:57;;;;;;;13.05;1.75;;;4.20;99.90;;;;;;6741471;88;20268;-74
2022/02/07 08:02:54;;;;;;;7.93;1.20;;;4.30;99.90;;;;;;6761390;87;20203;-73
2022/02/07 08:12:54;;;;;;;10.05;1.37;;;4.30;99.90;;;;;;6770185;87;20207;-73
2022/02/07 08:23:00;;;;;;;13.10;1.52;;;4.40;99.90;;;;;;6762347;87;20306;-73
2022/02/07 08:33:03;;;;;;;13.35;1.65;;;4.60;99.90;;;;;;6752428;87;20338;-74
2022/02/07 08:43:04;;;;;;;13.77;1.40;;;4.90;99.90;;;;;;6752051;87;20323;-73
2022/02/07 08:53:06;;;;;;;9.18;1.35;;;4.90;99.90;;;;;;6758600;87;20242;-74
2022/02/07 09:13:30;;;;;;;12.15;1.65;;;5.00;99.90;;;;;;6753444;87;20188;-74
2022/02/07 09:23:30;;;;;;;12.60;1.60;;;5.00;99.90;;;;;;6759320;87;20566;-74
2022/02/07 09:33:31;;;;;;;8.98;1.58;;;5.20;99.90;;;;;;6758525;87;20200;-74
2022/02/07 09:43:34;;;;;;;10.15;1.83;;;5.20;99.90;;;;;;6751124;87;20192;-74
2022/02/07 09:53:36;;;;;;;10.20;1.80;;;5.50;99.90;;;;;;6762858;87;20696;-73
2022/02/07 10:04:08;;;;;;;16.45;2.00;;;5.90;99.90;;;;;;6754220;87;20185;-74
2022/02/07 10:14:18;;;;;;;12.25;1.92;;;6.00;99.90;;;;;;6750373;87;20173;-74
2022/02/07 10:44:50;;;;;;;9.40;1.70;;;7.70;99.90;;;;;;6763864;87;20044;-74
2022/02/07 10:54:50;;;;;;;16.75;2.10;;;8.40;99.90;;;;;;6748869;87;20263;-74
2022/02/07 11:04:59;;;;;;;13.98;1.90;;;9.10;99.90;;;;;;6752770;87;20734;-74
2022/02/07 11:35:24;;;;;;;7.45;2.08;;;7.30;99.90;;;;;;6752813;87;20207;-74
2022/02/07 11:45:24;;;;;;;8.27;1.65;;;7.40;99.90;;;;;;6752102;87;20297;-74
2022/02/07 11:55:31;;;;;;;11.88;2.08;;;7.10;99.90;;;;;;6751687;87;20365;-73
2022/02/07 12:05:40;;;;;;;9.48;1.80;;;7.00;99.90;;;;;;6767305;87;20334;-74
2022/02/07 12:15:50;;;;;;;10.88;1.95;;;7.10;99.90;;;;;;6756777;87;20239;-73
2022/02/07 12:25:57;;;;;;;12.07;1.75;;;7.50;99.90;;;;;;6751147;87;20556;-74
2022/02/07 12:35:57;;;;;;;;;;;7.90;99.90;;;;;;6759456;87;20297;-74
2022/02/07 12:45:58;;;;;;;9.00;1.70;;;7.60;99.90;;;;;;6752318;87;20173;-74
2022/02/07 12:56:01;;;;;;;11.20;1.90;;;7.20;99.90;;;;;;6765160;87;20492;-75
2022/02/07 13:06:04;;;;;;;9.93;1.73;;;7.20;99.90;;;;;;6763227;87;20217;-75
2022/02/07 13:16:05;;;;;;;5.82;1.27;;;6.90;99.90;;;;;;6770726;87;20209;-75
2022/02/07 13:26:08;;;;;;;9.45;1.62;;;7.10;99.90;;;;;;6768246;87;20710;-75
2022/02/07 13:36:09;;;;;;;9.52;1.60;;;7.40;99.90;;;;;;6763916;87;20188;-75
2022/02/07 13:46:11;;;;;;;8.52;1.70;;;7.40;99.90;;;;;;6754902;87;20200;-74
2022/02/07 13:56:11;;;;;;;8.88;1.60;;;7.70;99.90;;;;;;6766471;87;20179;-73
2022/02/07 14:06:14;;;;;;;10.48;1.48;;;8.10;99.90;;;;;;6765866;87;20210;-73
2022/02/07 14:16:15;;;;;;;9.15;1.80;;;8.80;99.90;;;;;;6771940;87;20204;-73
2022/02/07 14:26:18;;;;;;;7.45;1.30;;;7.90;99.90;;;;;;6759193;87;20227;-74
2022/02/07 14:36:19;;;;;;;13.77;1.95;;;7.50;99.90;;;;;;6760254;87;20240;-73
2022/02/07 14:46:24;;;;;;;7.32;1.30;;;7.50;99.90;;;;;;6754604;87;20206;-73
2022/02/07 14:56:25;;;;;;;8.48;1.37;;;7.40;99.90;;;;;;6759540;88;20272;-73
2022/02/07 15:06:26;;;;;;;9.20;1.23;;;7.40;99.90;;;;;;6769100;87;20193;-73
2022/02/07 15:16:26;;;;;;;9.32;1.67;;;7.60;99.90;;;;;;6751951;87;20807;-74
2022/02/07 15:26:27;;;;;;;7.20;1.00;;;7.80;99.90;;;;;;6759678;87;20283;-73
2022/02/07 15:36:28;;;;;;;5.62;1.30;;;7.50;99.90;;;;;;6754780;87;20561;-73
2022/02/07 15:46:29;;;;;;;6.05;1.10;;;7.50;99.90;;;;;;6758435;87;20415;-73
2022/02/07 15:56:30;;;;;;;6.70;0.90;;;7.50;99.90;;;;;;6760960;87;20212;-73
2022/02/07 16:06:30;;;;;;;6.60;1.20;;;7.20;99.90;;;;;;6764422;87;20576;-73
2022/02/07 16:16:31;;;;;;;7.00;1.45;;;7.10;99.90;;;;;;6763589;87;20311;-73
2022/02/07 16:26:32;;;;;;;7.55;1.10;;;7.00;99.90;;;;;;6769098;87;20176;-73
2022/02/07 16:36:32;;;;;;;7.32;1.02;;;6.70;99.90;;;;;;6767962;87;20260;-73
2022/02/07 16:46:48;;;;;;;7.60;1.30;;;6.40;99.90;;;;;;6761909;87;20192;-74
2022/02/07 16:56:50;;;;;;;4.10;1.07;;;6.20;99.90;;;;;;6758647;76;20545;-75
2022/02/07 17:06:51;;;;;;;3.70;0.98;;;6.00;99.90;;;;;;6734852;88;20355;-76
2022/02/07 17:16:51;;;;;;;5.87;1.08;;;5.90;99.90;;;;;;6731690;88;20189;-75
2022/02/07 17:26:52;;;;;;;10.93;1.33;;;5.50;99.90;;;;;;6730957;88;20207;-75
2022/02/07 17:36:52;;;;;;;4.22;1.00;;;5.50;99.90;;;;;;6730596;88;20531;-75
2022/02/07 17:46:57;;;;;;;6.53;1.08;;;5.40;99.90;;;;;;6730093;88;20192;-76
2022/02/07 17:56:59;;;;;;;4.43;1.23;;;5.30;99.90;;;;;;6730971;88;20216;-75
2022/02/07 18:07:00;;;;;;;5.68;1.17;;;5.30;99.90;;;;;;6727684;88;20197;-76
2022/02/07 18:17:01;;;;;;;5.65;1.42;;;5.20;99.90;;;;;;6730463;88;20226;-76
2022/02/07 18:27:03;;;;;;;6.00;1.45;;;5.40;99.90;;;;;;6726297;88;20223;-75
2022/02/07 18:37:05;;;;;;;4.40;1.30;;;5.30;99.90;;;;;;6726901;88;20603;-76
2022/02/07 18:47:09;;;;;;;7.20;1.92;;;5.50;99.90;;;;;;6719994;88;20214;-76
2022/02/07 18:57:10;;;;;;;4.60;1.50;;;5.30;99.90;;;;;;6722731;88;20376;-76
2022/02/07 19:07:11;;;;;;;7.15;1.50;;;5.30;99.90;;;;;;6721542;88;20180;-76
2022/02/07 19:17:14;;;;;;;6.97;1.62;;;5.30;99.90;;;;;;6724560;88;20216;-76
2022/02/07 19:37:23;;;;;;;7.07;1.65;;;5.50;99.90;;;;;;6720583;88;20245;-75
2022/02/07 19:47:23;;;;;;;6.82;1.73;;;5.60;99.90;;;;;;6724400;88;20722;-75
2022/02/07 19:57:26;;;;;;;6.03;1.30;;;5.40;99.90;;;;;;6727099;88;20631;-75
2022/02/07 20:07:35;;;;;;;6.93;1.50;;;5.40;99.90;;;;;;6728275;88;20190;-75
2022/02/07 20:17:38;;;;;;;7.57;1.60;;;5.50;99.90;;;;;;6732437;88;20383;-75
2022/02/07 20:27:38;;;;;;;9.10;1.40;;;5.60;99.90;;;;;;6745001;88;20188;-76
2022/02/07 20:37:39;;;;;;;5.55;1.30;;;5.50;99.90;;;;;;6733078;88;20238;-77
2022/02/07 20:47:45;;;;;;;7.25;1.20;;;5.50;99.90;;;;;;6724259;88;20503;-75
2022/02/07 20:57:46;;;;;;;5.05;1.45;;;5.40;99.90;;;;;;6728650;88;20240;-76
2022/02/07 21:07:47;;;;;;;5.87;1.00;;;5.30;99.90;;;;;;6724148;88;20733;-75
2022/02/07 21:17:49;;;;;;;5.60;1.12;;;5.50;99.90;;;;;;6720035;88;20298;-76
2022/02/07 21:27:50;;;;;;;7.15;1.17;;;5.50;99.90;;;;;;6723781;88;20209;-75
2022/02/07 21:37:53;;;;;;;3.53;1.00;;;5.40;99.90;;;;;;6729461;88;20184;-75
2022/02/07 21:47:54;;;;;;;5.25;1.23;;;5.40;99.90;;;;;;6724290;88;20192;-75
2022/02/07 21:57:54;;;;;;;6.37;1.00;;;5.50;99.90;;;;;;6725458;88;20218;-75
2022/02/07 22:07:55;;;;;;;5.95;0.98;;;5.40;99.90;;;;;;6730582;88;20316;-74
2022/02/07 22:17:59;;;;;;;5.87;1.05;;;5.30;99.90;;;;;;6722097;88;20216;-75
2022/02/07 22:28:00;;;;;;;7.57;1.23;;;5.30;99.90;;;;;;6726826;88;20280;-74
2022/02/07 22:38:00;;;;;;;6.80;1.00;;;5.10;99.90;;;;;;6730891;88;20205;-74
2022/02/07 22:48:01;;;;;;;5.43;1.02;;;5.10;99.90;;;;;;6728721;88;20204;-74
2022/02/07 22:58:02;;;;;;;4.20;1.15;;;5.10;99.90;;;;;;6734900;76;20256;-74
2022/02/07 23:08:10;;;;;;;5.60;1.20;;;5.30;99.90;;;;;;6733732;88;20252;-74
2022/02/07 23:38:40;;;;;;;6.93;1.30;;;5.60;99.90;;;;;;6729611;88;20194;-74
2022/02/07 23:48:47;;;;;;;8.30;1.52;;;5.70;99.90;;;;;;6740724;88;20708;-74
2022/02/07 23:59:06;;;;;;;9.38;1.20;;;5.90;99.90;;;;;;6730569;88;20307;-74
